New Haven, Kentucky
Current Conditions -  °F | °C
As of 4:15 AM on Monday 24 Nov 2014 (Local Time) from K6I2 Reporting Station
Scattered Clouds Scattered Clouds  
Wind Chill: 61°   Ceiling: Unl
Heat Index: 61°   Visibility: 10mi
Dew Point: 55°   Wind: 15mph
Humidity: 82%   Direction: 190°S
Pressure: 29.42"   Gusts: 21mph
Location:  37.66°N, 85.59°W
Report Text: K6I2 240915Z AUTO 19013G18KT 10SM FEW020 SCT026 16/13 A2942 RMK AO2
Loading
Personal Weather Stations






























Interactive Weather Map New forecast layout! Learn more

10-Day Weather Forecast

Advertisements
Track Severe Weather on mobile